Time;durP1;ratioP1;P1;durP2;ratioP2;P2;SDS_P1;SDS_P2;PMS_P1;PMS_P2;Temp;Humidity;BMP_temperature;BMP_pressure;BME280_temperature;BME280_humidity;BME280_pressure;Samples;Min_cycle;Max_cycle;Signal;HPM_P1;HPM_P2
2021/11/06 05:02:38;;;;;;;635.20;49.90;;;4.60;99.90;;;;;;4937630;29;20470;-69
2021/11/06 05:05:06;;;;;;;959.03;56.43;;;4.70;99.90;;;;;;4939044;29;20459;-69
2021/11/06 05:07:33;;;;;;;340.33;42.70;;;4.70;99.90;;;;;;4939013;29;20456;-69
2021/11/06 05:09:59;;;;;;;380.30;47.33;;;4.80;99.90;;;;;;4939137;29;20847;-69
2021/11/06 05:12:26;;;;;;;259.83;38.67;;;4.90;99.90;;;;;;4939120;29;21014;-69
2021/11/06 05:14:53;;;;;;;562.00;45.37;;;5.00;99.90;;;;;;4938903;29;20465;-69
2021/11/06 05:17:20;;;;;;;706.20;49.90;;;5.00;99.90;;;;;;4938505;29;20969;-69
2021/11/06 05:19:49;;;;;;;768.87;51.87;;;5.00;99.90;;;;;;4938809;29;20463;-69
2021/11/06 05:22:16;;;;;;;912.53;57.80;;;5.00;99.90;;;;;;4938333;29;20492;-69
2021/11/06 05:24:43;;;;;;;754.13;53.20;;;4.90;99.90;;;;;;4938899;29;20461;-69
2021/11/06 05:27:10;;;;;;;935.47;57.10;;;4.90;99.90;;;;;;4938674;29;20456;-69
2021/11/06 05:29:36;;;;;;;914.87;59.00;;;4.80;99.90;;;;;;4938678;29;20552;-69
2021/11/06 05:32:03;;;;;;;848.07;57.00;;;4.70;99.90;;;;;;4938473;29;20477;-69
2021/11/06 05:34:30;;;;;;;893.97;57.10;;;4.70;99.90;;;;;;4938482;29;20462;-69
2021/11/06 05:36:58;;;;;;;1046.60;64.03;;;4.80;99.90;;;;;;4938513;29;20823;-69
2021/11/06 05:39:25;;;;;;;1108.43;65.87;;;4.70;99.90;;;;;;4938637;29;20456;-69
2021/11/06 05:41:52;;;;;;;913.33;59.57;;;4.70;99.90;;;;;;4938348;29;20536;-69
2021/11/06 05:44:19;;;;;;;817.87;57.07;;;4.70;99.90;;;;;;4938450;29;20816;-70
2021/11/06 05:46:46;;;;;;;977.60;66.70;;;4.80;99.90;;;;;;4938360;29;20469;-69
2021/11/06 05:49:12;;;;;;;929.40;62.20;;;4.70;99.90;;;;;;4937717;29;20465;-69
2021/11/06 05:51:40;;;;;;;1002.17;61.30;;;4.70;99.90;;;;;;4938136;29;20489;-69
2021/11/06 05:54:08;;;;;;;433.57;45.53;;;4.70;99.90;;;;;;4938036;29;20457;-69
2021/11/06 05:56:35;;;;;;;561.60;51.87;;;4.80;99.90;;;;;;4938110;29;20461;-69
2021/11/06 05:59:02;;;;;;;739.33;54.30;;;4.90;99.90;;;;;;4938171;29;20976;-70
2021/11/06 06:01:29;;;;;;;270.70;40.83;;;4.90;99.90;;;;;;4937585;29;20488;-69
2021/11/06 06:03:55;;;;;;;345.63;41.57;;;5.00;99.90;;;;;;4937831;29;20460;-69
2021/11/06 06:06:22;;;;;;;443.37;40.73;;;5.00;99.90;;;;;;4937620;29;20845;-69
2021/11/06 06:08:49;;;;;;;718.23;53.33;;;5.00;99.90;;;;;;4937806;29;20578;-69
2021/11/06 06:11:17;;;;;;;674.93;49.30;;;4.90;99.90;;;;;;4937899;29;20488;-69
2021/11/06 06:13:44;;;;;;;801.27;54.43;;;4.80;99.90;;;;;;4937780;29;20456;-70
2021/11/06 06:16:11;;;;;;;388.30;42.03;;;4.80;99.90;;;;;;4938297;29;20468;-69
2021/11/06 06:18:38;;;;;;;609.63;49.17;;;4.80;99.90;;;;;;4937891;29;20464;-69
2021/11/06 06:21:05;;;;;;;531.93;45.10;;;4.70;99.90;;;;;;4938060;29;20479;-69
2021/11/06 06:23:31;;;;;;;412.93;41.40;;;4.70;99.90;;;;;;4937872;29;20461;-68
2021/11/06 06:25:58;;;;;;;342.47;39.67;;;4.70;99.90;;;;;;4937840;29;20460;-69
2021/11/06 06:28:26;;;;;;;586.47;43.70;;;4.70;99.90;;;;;;4937809;29;20456;-68
2021/11/06 06:30:53;;;;;;;507.80;43.33;;;4.70;99.90;;;;;;4937533;29;20511;-69
2021/11/06 06:33:20;;;;;;;312.20;39.50;;;4.70;99.90;;;;;;4937591;29;20463;-68
2021/11/06 06:35:46;;;;;;;651.30;48.60;;;4.80;99.90;;;;;;4937284;29;20468;-68
2021/11/06 06:38:13;;;;;;;484.70;46.50;;;4.80;99.90;;;;;;4937884;29;20835;-68
2021/11/06 06:40:40;;;;;;;579.07;46.20;;;4.80;99.90;;;;;;4939597;29;20818;-68
2021/11/06 06:43:07;;;;;;;394.20;41.53;;;4.80;99.90;;;;;;4938100;29;20457;-68
2021/11/06 06:45:35;;;;;;;510.17;47.17;;;4.80;99.90;;;;;;4937915;29;20456;-68
2021/11/06 06:48:02;;;;;;;291.40;39.00;;;4.80;99.90;;;;;;4937173;29;20975;-68
2021/11/06 06:50:28;;;;;;;210.60;38.20;;;4.90;99.90;;;;;;4937371;29;20480;-68
2021/11/06 06:52:55;;;;;;;341.60;42.43;;;4.90;99.90;;;;;;4936979;29;20436;-68
2021/11/06 06:55:22;;;;;;;309.27;38.60;;;5.00;99.90;;;;;;4937091;29;20896;-68
2021/11/06 06:57:49;;;;;;;178.97;34.23;;;5.00;99.90;;;;;;4936957;29;20460;-69
2021/11/06 07:00:17;;;;;;;269.30;37.90;;;5.00;99.90;;;;;;4936293;29;20464;-69
2021/11/06 07:02:45;;;;;;;667.70;51.20;;;5.00;99.90;;;;;;4937280;29;20441;-69
2021/11/06 07:05:12;;;;;;;824.23;51.93;;;5.00;99.90;;;;;;4937275;29;20467;-69
2021/11/06 07:07:39;;;;;;;1100.97;64.43;;;4.90;99.90;;;;;;4937251;29;20491;-68
2021/11/06 07:10:07;;;;;;;229.30;35.70;;;4.80;99.90;;;;;;4936751;29;20456;-69
2021/11/06 07:12:34;;;;;;;448.23;45.57;;;4.80;99.90;;;;;;4936705;29;20476;-69
2021/11/06 07:15:01;;;;;;;354.70;39.80;;;4.90;99.90;;;;;;4936435;29;20464;-69
2021/11/06 07:17:27;;;;;;;307.77;36.07;;;4.90;99.90;;;;;;4936741;29;20578;-69
2021/11/06 07:19:55;;;;;;;402.07;37.97;;;5.00;99.90;;;;;;4936357;29;20943;-68
2021/11/06 07:22:22;;;;;;;334.50;38.03;;;5.00;99.90;;;;;;4936704;29;20477;-70
2021/11/06 07:24:49;;;;;;;353.87;36.70;;;5.00;99.90;;;;;;4936527;29;20452;-69
2021/11/06 07:27:15;;;;;;;340.07;36.97;;;4.90;99.90;;;;;;4936235;29;20963;-70
2021/11/06 07:29:42;;;;;;;433.63;37.77;;;4.90;99.90;;;;;;4936559;29;20455;-70
2021/11/06 07:32:09;;;;;;;595.77;45.27;;;4.70;99.90;;;;;;4936336;29;20850;-69
2021/11/06 07:34:36;;;;;;;448.77;41.13;;;4.70;99.90;;;;;;4936784;29;20441;-69
2021/11/06 07:37:04;;;;;;;547.23;43.83;;;4.70;99.90;;;;;;4936585;29;20827;-69
2021/11/06 07:39:31;;;;;;;393.07;38.27;;;4.70;99.90;;;;;;4936438;29;20543;-68
2021/11/06 07:41:58;;;;;;;253.93;33.87;;;4.70;99.90;;;;;;4936990;29;20480;-68
2021/11/06 07:44:25;;;;;;;301.80;32.83;;;4.60;99.90;;;;;;4936711;29;20451;-68
2021/11/06 07:46:53;;;;;;;460.20;38.60;;;4.60;99.90;;;;;;4936411;29;20460;-68
2021/11/06 07:49:20;;;;;;;337.50;35.53;;;4.60;99.90;;;;;;4936364;29;20441;-68
2021/11/06 07:51:47;;;;;;;522.63;39.80;;;4.50;99.90;;;;;;4936109;29;20495;-68
2021/11/06 07:54:15;;;;;;;432.07;37.10;;;4.40;99.90;;;;;;4936421;29;20461;-67
2021/11/06 07:56:42;;;;;;;816.50;46.07;;;4.30;99.90;;;;;;4936011;29;20461;-67
2021/11/06 07:59:08;;;;;;;219.13;31.67;;;4.20;99.90;;;;;;4936340;29;20463;-67
2021/11/06 08:01:35;;;;;;;687.67;48.63;;;4.20;99.90;;;;;;4935998;29;20494;-68
2021/11/06 08:04:02;;;;;;;433.47;39.33;;;4.20;99.90;;;;;;4936350;29;20467;-66
2021/11/06 08:06:29;;;;;;;732.57;49.20;;;4.30;99.90;;;;;;4935934;29;20975;-67
2021/11/06 08:08:56;;;;;;;716.57;51.23;;;4.30;99.90;;;;;;4936348;29;20461;-67
2021/11/06 08:11:24;;;;;;;457.67;44.33;;;4.30;99.90;;;;;;4936901;29;20498;-67
2021/11/06 08:13:51;;;;;;;802.00;52.87;;;4.30;99.90;;;;;;4939315;29;20964;-67
2021/11/06 08:16:19;;;;;;;672.90;44.73;;;4.40;99.90;;;;;;4939430;29;20496;-68
2021/11/06 08:18:46;;;;;;;406.40;38.17;;;4.60;99.90;;;;;;4939742;29;20464;-68
2021/11/06 08:21:13;;;;;;;328.60;32.30;;;4.70;99.90;;;;;;4939528;29;20472;-71
2021/11/06 08:23:39;;;;;;;516.40;41.20;;;4.80;99.90;;;;;;4939638;29;20456;-72
2021/11/06 08:26:06;;;;;;;796.00;49.57;;;5.00;99.90;;;;;;4939847;29;20456;-67
2021/11/06 08:28:34;;;;;;;875.20;52.57;;;5.00;99.90;;;;;;4939677;29;20467;-71
2021/11/06 08:31:02;;;;;;;778.60;48.77;;;4.90;99.90;;;;;;4939293;29;20843;-69
2021/11/06 08:33:31;;;;;;;593.60;45.07;;;4.90;99.90;;;;;;4939417;29;20464;-70
2021/11/06 08:35:58;;;;;;;681.37;46.90;;;4.80;99.90;;;;;;4939332;29;20547;-71
2021/11/06 08:38:24;;;;;;;362.80;39.57;;;4.90;99.90;;;;;;4939384;29;20822;-70
2021/11/06 08:40:51;;;;;;;381.27;39.77;;;4.90;99.90;;;;;;4939179;29;20468;-72
2021/11/06 08:43:18;;;;;;;298.93;37.70;;;4.90;99.90;;;;;;4939365;29;20512;-71
2021/11/06 08:45:47;;;;;;;512.37;43.00;;;4.90;99.90;;;;;;4939198;29;20513;-68
2021/11/06 08:48:15;;;;;;;785.43;50.63;;;5.00;99.90;;;;;;4939280;29;20456;-71
2021/11/06 08:50:42;;;;;;;435.73;39.87;;;4.90;99.90;;;;;;4939320;29;20483;-68
2021/11/06 08:53:09;;;;;;;771.43;49.97;;;4.90;99.90;;;;;;4939227;29;20468;-68
2021/11/06 08:55:35;;;;;;;597.50;49.97;;;4.80;99.90;;;;;;4939070;29;20457;-67
2021/11/06 08:58:02;;;;;;;462.07;43.17;;;4.90;99.90;;;;;;4939088;29;20457;-70
2021/11/06 09:00:34;;;;;;;378.47;39.00;;;4.90;99.90;;;;;;4938726;29;20801;-72
2021/11/06 09:03:04;;;;;;;362.17;33.47;;;4.90;99.90;;;;;;4938859;29;20488;-71
2021/11/06 09:05:32;;;;;;;410.77;36.53;;;5.00;99.90;;;;;;4939143;29;20460;-71
2021/11/06 09:08:00;;;;;;;318.03;33.17;;;5.00;99.90;;;;;;4939526;29;20478;-71
2021/11/06 09:10:27;;;;;;;203.37;32.00;;;5.00;99.90;;;;;;4939847;29;20944;-71
2021/11/06 09:12:54;;;;;;;320.30;36.03;;;5.10;99.90;;;;;;4941536;29;20827;-70
2021/11/06 09:15:21;;;;;;;280.70;33.20;;;5.20;99.90;;;;;;4938614;29;20464;-71
2021/11/06 09:17:49;;;;;;;403.70;34.17;;;5.30;99.90;;;;;;4938432;29;20967;-69
2021/11/06 09:20:18;;;;;;;138.43;28.30;;;5.30;99.90;;;;;;4938512;29;20468;-68
2021/11/06 09:22:45;;;;;;;113.37;30.73;;;5.30;99.90;;;;;;4938216;29;20456;-71
2021/11/06 09:25:13;;;;;;;309.97;34.57;;;5.40;99.90;;;;;;4937914;29;20463;-71
2021/11/06 09:27:39;;;;;;;644.03;45.13;;;5.40;99.90;;;;;;4938463;29;20464;-70
2021/11/06 09:30:09;;;;;;;737.13;51.20;;;5.40;99.90;;;;;;4938139;29;20457;-69
2021/11/06 09:32:37;;;;;;;545.00;44.47;;;5.40;99.90;;;;;;4938447;29;20486;-69
2021/11/06 09:35:04;;;;;;;207.57;31.90;;;5.30;99.90;;;;;;4938601;29;20460;-70
2021/11/06 09:37:32;;;;;;;337.33;39.13;;;5.40;99.90;;;;;;4938242;29;20460;-68
2021/11/06 09:39:59;;;;;;;576.30;40.93;;;5.40;99.90;;;;;;4938481;29;20461;-68
2021/11/06 09:42:26;;;;;;;424.13;38.23;;;5.40;99.90;;;;;;4938324;29;20821;-73
2021/11/06 09:44:53;;;;;;;503.53;38.93;;;5.40;99.90;;;;;;4938612;29;20479;-72
2021/11/06 09:47:20;;;;;;;306.30;33.43;;;5.30;99.90;;;;;;4938467;29;20460;-72
2021/11/06 09:49:48;;;;;;;271.30;48.93;;;5.30;99.90;;;;;;4938102;29;20463;-72
2021/11/06 09:52:15;;;;;;;172.43;33.57;;;5.30;99.90;;;;;;4937723;29;21009;-72
2021/11/06 09:54:44;;;;;;;190.27;29.57;;;5.40;99.90;;;;;;4937784;29;20456;-72
2021/11/06 09:57:10;;;;;;;497.30;38.17;;;5.50;99.90;;;;;;4937903;29;20457;-72
2021/11/06 09:59:37;;;;;;;156.87;30.63;;;5.50;99.90;;;;;;4937518;29;20944;-72
2021/11/06 10:02:05;;;;;;;78.33;30.90;;;5.60;99.90;;;;;;4937916;29;20491;-73
2021/11/06 10:04:32;;;;;;;97.70;31.30;;;5.70;99.90;;;;;;4938616;29;20440;-70
2021/11/06 10:07:00;;;;;;;459.60;39.40;;;5.90;99.90;;;;;;4937721;29;20459;-79
2021/11/06 10:09:27;;;;;;;233.20;32.40;;;6.00;99.90;;;;;;4937237;29;20456;-70
2021/11/06 10:11:55;;;;;;;58.97;26.70;;;6.10;99.90;;;;;;4937566;29;20916;-69
2021/11/06 10:14:24;;;;;;;96.00;26.73;;;6.20;99.90;;;;;;4937609;29;20511;-70
2021/11/06 10:16:55;;;;;;;130.27;30.07;;;6.30;99.90;;;;;;4937600;29;20531;-68
2021/11/06 10:19:24;;;;;;;67.20;27.03;;;6.30;99.90;;;;;;4937878;29;20448;-70
2021/11/06 10:22:04;;;;;;;67.40;30.70;;;6.40;99.90;;;;;;4937514;29;20472;-71
2021/11/06 10:24:39;;;;;;;48.90;29.53;;;6.40;99.90;;;;;;4937448;29;20808;-71
2021/11/06 10:27:17;;;;;;;74.40;28.97;;;6.50;99.90;;;;;;4938130;29;20444;-70
2021/11/06 10:29:44;;;;;;;99.57;28.20;;;6.60;99.90;;;;;;4937521;29;20444;-70
2021/11/06 10:32:11;;;;;;;411.93;39.77;;;6.70;99.90;;;;;;4937224;29;20492;-70
2021/11/06 10:34:40;;;;;;;112.23;31.10;;;6.60;99.90;;;;;;4937379;29;20564;-69
2021/11/06 10:37:12;;;;;;;115.93;30.53;;;6.60;99.90;;;;;;4937567;29;20551;-68
2021/11/06 10:39:53;;;;;;;72.80;28.03;;;6.60;99.90;;;;;;4937446;29;20809;-69
2021/11/06 10:42:21;;;;;;;71.93;30.63;;;6.60;99.90;;;;;;4937910;29;20511;-69
2021/11/06 10:44:48;;;;;;;111.37;29.73;;;6.60;99.90;;;;;;4941546;29;20457;-68
2021/11/06 10:47:15;;;;;;;52.67;30.50;;;6.70;99.90;;;;;;4937218;29;20463;-68
2021/11/06 10:49:44;;;;;;;472.97;38.60;;;6.80;99.90;;;;;;4937319;29;20460;-68
2021/11/06 10:52:12;;;;;;;110.60;29.30;;;6.60;99.90;;;;;;4937057;29;20488;-68
2021/11/06 10:55:12;;;;;;;91.23;30.87;;;6.50;99.90;;;;;;4936858;29;20940;-70
2021/11/06 10:57:40;;;;;;;53.27;30.23;;;6.60;99.90;;;;;;4937113;29;20444;-68
2021/11/06 11:00:11;;;;;;;62.87;30.30;;;6.80;99.90;;;;;;4943227;29;20457;-68
2021/11/06 11:02:38;;;;;;;115.63;32.90;;;6.90;99.90;;;;;;4944938;29;20438;-68
2021/11/06 11:05:06;;;;;;;58.30;29.20;;;6.90;99.90;;;;;;4945722;29;20672;-68
2021/11/06 11:07:33;;;;;;;56.57;29.27;;;6.90;99.90;;;;;;4945445;29;20849;-68
2021/11/06 11:10:00;;;;;;;60.97;31.30;;;7.00;99.90;;;;;;4946120;29;20456;-68
2021/11/06 11:12:27;;;;;;;46.80;29.97;;;7.10;99.90;;;;;;4945593;29;20484;-68
2021/11/06 11:14:57;;;;;;;47.37;30.00;;;7.30;99.90;;;;;;4945715;29;20457;-69
2021/11/06 11:17:40;;;;;;;74.67;32.57;;;7.40;99.90;;;;;;4945691;29;20440;-67
2021/11/06 11:20:25;;;;;;;50.10;32.00;;;7.30;99.90;;;;;;4945205;29;20447;-69
2021/11/06 11:23:10;;;;;;;50.63;31.50;;;7.30;99.90;;;;;;4945419;29;20457;-68
2021/11/06 11:25:37;;;;;;;47.73;32.80;;;7.40;99.90;;;;;;4946640;29;20442;-70
2021/11/06 11:28:04;;;;;;;54.37;32.00;;;7.50;99.90;;;;;;4944740;29;20457;-69
2021/11/06 11:30:32;;;;;;;52.20;34.13;;;7.60;99.90;;;;;;4941539;29;20460;-68
2021/11/06 11:33:00;;;;;;;47.60;30.37;;;7.60;99.90;;;;;;4937140;29;20484;-68
2021/11/06 11:35:27;;;;;;;47.13;32.23;;;7.70;99.90;;;;;;4937150;29;20507;-68
2021/11/06 11:37:56;;;;;;;44.63;31.73;;;7.80;99.90;;;;;;4937160;29;20481;-68
2021/11/06 11:40:24;;;;;;;69.87;31.10;;;7.90;99.90;;;;;;4936874;29;20464;-69
2021/11/06 11:42:59;;;;;;;43.40;30.37;;;8.00;99.90;;;;;;4937111;29;20461;-68
2021/11/06 11:45:39;;;;;;;54.00;33.20;;;7.90;99.90;;;;;;4936620;29;20451;-69
2021/11/06 11:48:10;;;;;;;44.63;31.37;;;8.00;99.90;;;;;;4939860;29;20468;-67
2021/11/06 11:50:41;;;;;;;63.97;33.33;;;8.00;99.90;;;;;;4940376;29;20895;-67
2021/11/06 11:53:10;;;;;;;46.90;32.70;;;8.10;99.90;;;;;;4940650;29;20473;-67
2021/11/06 11:55:42;;;;;;;44.77;33.70;;;8.20;99.90;;;;;;4940862;29;20441;-67
2021/11/06 11:58:14;;;;;;;45.60;32.27;;;8.20;99.90;;;;;;4940244;29;20451;-69
2021/11/06 12:00:45;;;;;;;46.23;33.80;;;8.20;99.90;;;;;;4939692;29;20495;-68
2021/11/06 12:03:12;;;;;;;46.50;35.53;;;8.20;99.90;;;;;;4940105;29;20437;-68
2021/11/06 12:05:42;;;;;;;45.70;35.67;;;8.20;99.90;;;;;;4939845;29;20461;-69
2021/11/06 12:08:28;;;;;;;38.67;30.53;;;8.20;99.90;;;;;;4939883;29;20460;-68
2021/11/06 12:10:58;;;;;;;46.30;36.80;;;8.30;99.90;;;;;;4939925;29;20480;-68
2021/11/06 12:13:36;;;;;;;49.67;34.10;;;8.20;99.90;;;;;;4939800;29;20504;-68
2021/11/06 12:16:07;;;;;;;42.97;33.70;;;8.20;99.90;;;;;;4941063;29;20444;-68
2021/11/06 12:18:54;;;;;;;39.87;33.60;;;8.40;99.90;;;;;;4939786;29;20450;-68
2021/11/06 12:21:27;;;;;;;37.17;32.70;;;8.40;99.90;;;;;;4939594;29;20480;-68
2021/11/06 12:23:57;;;;;;;43.20;32.03;;;8.50;99.90;;;;;;4939835;29;20510;-68
2021/11/06 12:26:25;;;;;;;40.37;33.80;;;8.50;99.90;;;;;;4939793;29;20527;-68
2021/11/06 12:29:14;;;;;;;38.40;31.20;;;8.60;99.90;;;;;;4939899;29;20449;-69
2021/11/06 12:31:44;;;;;;;38.93;32.63;;;8.50;99.90;;;;;;4939373;29;20472;-70
2021/11/06 12:34:29;;;;;;;40.43;32.83;;;8.50;99.90;;;;;;4939700;29;20548;-69
2021/11/06 12:36:57;;;;;;;41.97;35.00;;;8.60;99.90;;;;;;4940011;29;20460;-69
2021/11/06 12:39:44;;;;;;;39.13;33.83;;;8.60;99.90;;;;;;4939897;29;20462;-70
2021/11/06 12:42:16;;;;;;;38.93;32.67;;;8.80;99.90;;;;;;4939692;29;20481;-70
2021/11/06 12:44:58;;;;;;;39.87;33.50;;;8.80;99.90;;;;;;4939757;29;20445;-70
2021/11/06 12:47:28;;;;;;;43.93;34.87;;;8.80;99.90;;;;;;4939511;29;20473;-70
2021/11/06 12:49:56;;;;;;;44.00;33.63;;;8.70;99.90;;;;;;4939519;29;20484;-70
2021/11/06 12:52:24;;;;;;;44.07;35.77;;;8.70;99.90;;;;;;4940253;29;20492;-70
2021/11/06 12:54:58;;;;;;;41.63;34.03;;;8.70;99.90;;;;;;4939318;29;20457;-70
2021/11/06 12:57:32;;;;;;;47.37;34.70;;;8.60;99.90;;;;;;4940167;29;20450;-70
2021/11/06 12:59:59;;;;;;;42.90;34.50;;;8.60;99.90;;;;;;4939842;29;20500;-71
2021/11/06 13:02:43;;;;;;;40.50;34.57;;;8.70;99.90;;;;;;4938586;29;20509;-71
2021/11/06 13:05:10;;;;;;;40.53;33.87;;;8.70;99.90;;;;;;4939010;29;20445;-71
2021/11/06 13:07:37;;;;;;;37.03;30.37;;;8.60;99.90;;;;;;4939050;29;20465;-71
2021/11/06 13:10:17;;;;;;;36.87;31.57;;;8.60;99.90;;;;;;4938724;29;20464;-71
2021/11/06 13:12:44;;;;;;;44.30;34.37;;;8.70;99.90;;;;;;4938741;29;20476;-70
2021/11/06 13:15:10;;;;;;;37.00;31.70;;;8.60;99.90;;;;;;4938553;29;20460;-70
2021/11/06 13:17:39;;;;;;;40.80;33.40;;;8.80;99.90;;;;;;4938854;29;20797;-71
2021/11/06 13:20:08;;;;;;;42.50;34.50;;;9.00;99.90;;;;;;4938488;29;20949;-70
2021/11/06 13:22:51;;;;;;;42.77;33.57;;;9.20;99.90;;;;;;4942082;29;20476;-72
2021/11/06 13:25:21;;;;;;;37.03;31.30;;;9.20;99.90;;;;;;4940852;29;20909;-70
2021/11/06 13:27:52;;;;;;;29.33;25.90;;;9.40;99.90;;;;;;4938479;29;20913;-70
2021/11/06 13:30:44;;;;;;;34.70;31.00;;;9.90;99.90;;;;;;4938715;29;20456;-70
2021/11/06 13:33:21;;;;;;;33.93;30.23;;;10.10;99.90;;;;;;4938545;29;21014;-70
2021/11/06 13:35:50;;;;;;;34.80;31.10;;;10.20;99.90;;;;;;4938471;29;20488;-70
2021/11/06 13:38:39;;;;;;;34.27;30.53;;;10.30;99.90;;;;;;4938482;29;20460;-71
2021/11/06 13:41:15;;;;;;;34.40;30.67;;;10.20;99.90;;;;;;4938840;29;20476;-70
2021/11/06 13:43:44;;;;;;;32.83;29.43;;;10.20;99.90;;;;;;4938892;29;20437;-72
2021/11/06 13:46:31;;;;;;;32.30;28.87;;;10.10;99.90;;;;;;4940864;29;20533;-70
2021/11/06 13:49:04;;;;;;;33.70;29.10;;;10.10;99.90;;;;;;4942598;29;20442;-70
2021/11/06 13:51:34;;;;;;;33.20;28.90;;;10.00;99.90;;;;;;4939230;29;20476;-71
2021/11/06 13:54:08;;;;;;;31.70;27.90;;;10.00;99.90;;;;;;4938360;29;20982;-70
2021/11/06 13:56:56;;;;;;;34.33;30.57;;;10.00;99.90;;;;;;4937898;29;20448;-70
2021/11/06 13:59:28;;;;;;;34.57;30.73;;;10.00;99.90;;;;;;4938416;29;20440;-70
2021/11/06 14:01:55;;;;;;;33.23;29.50;;;10.00;99.90;;;;;;4937625;29;20490;-70
2021/11/06 14:04:24;;;;;;;34.60;29.80;;;10.00;99.90;;;;;;4938013;29;20464;-70
2021/11/06 14:06:53;;;;;;;33.50;29.90;;;10.00;99.90;;;;;;4938063;29;20464;-70
2021/11/06 14:09:21;;;;;;;34.73;29.50;;;10.10;99.90;;;;;;4937959;29;20464;-70
2021/11/06 14:11:54;;;;;;;34.87;29.53;;;10.20;99.90;;;;;;4938642;29;20481;-70
2021/11/06 14:14:24;;;;;;;31.80;26.67;;;10.20;99.90;;;;;;4938064;29;20849;-70
2021/11/06 14:17:05;;;;;;;33.07;28.93;;;10.20;99.90;;;;;;4937917;29;20466;-70
2021/11/06 14:19:45;;;;;;;36.97;28.90;;;10.20;99.90;;;;;;4937779;29;20484;-71
2021/11/06 14:22:15;;;;;;;31.53;25.70;;;10.30;99.90;;;;;;4937716;29;20476;-70
2021/11/06 14:24:42;;;;;;;29.63;26.57;;;10.40;99.90;;;;;;4937176;29;21005;-71
2021/11/06 14:27:12;;;;;;;33.17;28.37;;;10.50;99.90;;;;;;4937160;29;20458;-70
2021/11/06 14:29:40;;;;;;;32.23;28.83;;;10.60;99.90;;;;;;4937785;29;20483;-71
2021/11/06 14:32:11;;;;;;;31.30;27.90;;;10.70;99.90;;;;;;4937520;29;20480;-71
2021/11/06 14:34:39;;;;;;;30.73;27.40;;;10.70;99.90;;;;;;4937341;29;20446;-71
2021/11/06 14:37:09;;;;;;;33.63;30.03;;;10.70;99.90;;;;;;4937600;29;20457;-71
2021/11/06 14:39:38;;;;;;;32.07;28.57;;;10.70;99.90;;;;;;4937188;29;20462;-71
2021/11/06 14:42:07;;;;;;;33.57;29.17;;;10.70;99.90;;;;;;4937227;29;20483;-70
2021/11/06 14:44:37;;;;;;;34.10;29.57;;;10.70;99.90;;;;;;4938320;29;20454;-69
2021/11/06 14:47:14;;;;;;;33.57;29.60;;;10.80;99.90;;;;;;4937854;29;20877;-72
2021/11/06 14:49:45;;;;;;;35.47;31.60;;;10.70;99.90;;;;;;4937227;29;20912;-70
2021/11/06 14:52:14;;;;;;;35.83;30.17;;;10.60;99.90;;;;;;4940155;29;20480;-69
2021/11/06 14:54:46;;;;;;;38.77;31.03;;;10.60;99.90;;;;;;4937056;29;20492;-69
2021/11/06 14:57:14;;;;;;;48.70;32.97;;;10.40;99.90;;;;;;4936890;29;20461;-70
2021/11/06 14:59:41;;;;;;;33.83;30.27;;;10.40;99.90;;;;;;4937080;29;20803;-70
2021/11/06 15:02:08;;;;;;;35.10;30.63;;;10.30;99.90;;;;;;4936628;29;20485;-69
2021/11/06 15:04:45;;;;;;;34.63;30.83;;;10.30;99.90;;;;;;4936942;29;20481;-69
2021/11/06 15:07:12;;;;;;;35.33;31.37;;;10.30;99.90;;;;;;4937398;29;20496;-70
2021/11/06 15:09:39;;;;;;;37.70;30.73;;;10.20;99.90;;;;;;4937194;29;20462;-70
2021/11/06 15:12:07;;;;;;;37.33;30.83;;;10.10;99.90;;;;;;4937209;29;20477;-72
2021/11/06 15:14:34;;;;;;;40.40;31.93;;;9.80;99.90;;;;;;4937093;29;20495;-75
2021/11/06 15:17:01;;;;;;;35.03;29.43;;;9.80;99.90;;;;;;4937613;29;20465;-75
2021/11/06 15:19:29;;;;;;;37.57;31.77;;;9.70;99.90;;;;;;4939174;29;20456;-75
2021/11/06 15:21:58;;;;;;;38.30;32.70;;;9.60;99.90;;;;;;4938232;29;20477;-75
2021/11/06 15:24:26;;;;;;;41.70;34.03;;;9.50;99.90;;;;;;4941377;29;20453;-74
2021/11/06 15:26:54;;;;;;;38.43;30.77;;;9.30;99.90;;;;;;4941076;29;20463;-74
2021/11/06 15:29:21;;;;;;;40.07;33.20;;;9.10;99.90;;;;;;4940854;29;20456;-74
2021/11/06 15:31:50;;;;;;;39.57;32.20;;;8.80;99.90;;;;;;4940831;29;20477;-74
2021/11/06 15:34:17;;;;;;;49.50;38.30;;;8.80;99.90;;;;;;4940674;29;20476;-74
2021/11/06 15:36:44;;;;;;;53.20;40.27;;;8.60;99.90;;;;;;4941061;29;20959;-74
2021/11/06 15:39:13;;;;;;;60.87;45.30;;;8.30;99.90;;;;;;4941004;29;20456;-74
2021/11/06 15:41:40;;;;;;;54.10;41.73;;;8.10;99.90;;;;;;4940708;29;20512;-74
2021/11/06 15:44:07;;;;;;;58.00;45.40;;;7.90;99.90;;;;;;4940667;29;20461;-74
2021/11/06 15:46:34;;;;;;;49.97;38.63;;;7.90;99.90;;;;;;4940505;29;20460;-74
2021/11/06 15:49:03;;;;;;;50.50;34.50;;;7.70;99.90;;;;;;4940801;29;20551;-75
2021/11/06 15:51:37;;;;;;;58.30;42.90;;;7.40;99.90;;;;;;4940545;29;20484;-75
2021/11/06 15:54:04;;;;;;;61.43;42.40;;;7.30;99.90;;;;;;4940335;29;20491;-75
2021/11/06 15:56:33;;;;;;;58.07;41.50;;;7.30;99.90;;;;;;4940535;29;20461;-74
2021/11/06 15:58:59;;;;;;;61.70;42.57;;;7.10;99.90;;;;;;4941391;29;20855;-73
2021/11/06 16:01:26;;;;;;;63.47;43.20;;;7.00;99.90;;;;;;4941772;29;20917;-74
2021/11/06 16:03:53;;;;;;;62.10;44.00;;;6.90;99.90;;;;;;4941661;29;20461;-74
2021/11/06 16:06:20;;;;;;;58.20;39.97;;;6.90;99.90;;;;;;4941649;29;20479;-73
2021/11/06 16:08:47;;;;;;;56.60;39.30;;;6.90;99.90;;;;;;4940568;29;20459;-74
2021/11/06 16:11:14;;;;;;;50.00;34.23;;;6.80;99.90;;;;;;4940562;29;20483;-74
2021/11/06 16:13:42;;;;;;;53.17;34.30;;;6.80;99.90;;;;;;4940734;29;20480;-74
2021/11/06 16:16:12;;;;;;;52.37;35.27;;;6.70;99.90;;;;;;4940743;29;20456;-74
2021/11/06 16:18:41;;;;;;;51.20;33.70;;;6.70;99.90;;;;;;4940360;29;20570;-74
2021/11/06 16:21:10;;;;;;;57.07;36.53;;;6.60;99.90;;;;;;4940194;29;20484;-74
2021/11/06 16:23:37;;;;;;;58.47;39.07;;;6.50;99.90;;;;;;4939498;29;20945;-74
2021/11/06 16:26:04;;;;;;;63.67;38.70;;;6.40;99.90;;;;;;4939967;29;20464;-74
2021/11/06 16:28:31;;;;;;;62.73;38.80;;;6.40;99.90;;;;;;4939636;29;20463;-74
2021/11/06 16:30:59;;;;;;;60.40;38.00;;;6.30;99.90;;;;;;4940124;29;20483;-75
2021/11/06 16:33:27;;;;;;;57.60;32.83;;;6.20;99.90;;;;;;4939422;29;20484;-77
2021/11/06 16:35:54;;;;;;;57.50;35.13;;;6.10;99.90;;;;;;4940312;29;20456;-77
2021/11/06 16:38:21;;;;;;;70.30;39.57;;;6.30;99.90;;;;;;4939461;29;20461;-74
2021/11/06 16:40:48;;;;;;;58.50;35.57;;;6.40;99.90;;;;;;4939840;29;20506;-75
2021/11/06 16:43:18;;;;;;;68.83;38.40;;;6.30;99.90;;;;;;4939743;29;20940;-73
2021/11/06 16:45:47;;;;;;;59.67;34.20;;;6.20;99.90;;;;;;4940063;29;20452;-75
2021/11/06 16:48:15;;;;;;;76.07;43.27;;;6.10;99.90;;;;;;4940254;29;20938;-74
2021/11/06 16:50:44;;;;;;;72.03;42.07;;;5.80;99.90;;;;;;4946173;29;20487;-74
2021/11/06 16:53:11;;;;;;;83.13;46.10;;;5.70;99.90;;;;;;4941733;29;20456;-74
2021/11/06 16:55:38;;;;;;;83.43;44.77;;;5.60;99.90;;;;;;4940349;29;20483;-74
2021/11/06 16:58:05;;;;;;;87.00;44.97;;;5.50;99.90;;;;;;4939496;29;20457;-74
2021/11/06 17:00:34;;;;;;;89.20;46.67;;;5.50;99.90;;;;;;4939112;29;20487;-73
2021/11/06 17:03:01;;;;;;;97.77;47.67;;;5.40;99.90;;;;;;4938711;29;20446;-74
2021/11/06 17:05:31;;;;;;;104.70;48.60;;;5.30;99.90;;;;;;4939149;29;20457;-74
2021/11/06 17:08:15;;;;;;;118.97;53.83;;;5.20;99.90;;;;;;4939243;29;20456;-74
2021/11/06 17:10:42;;;;;;;111.50;51.90;;;5.20;99.90;;;;;;4939210;29;20483;-74
2021/11/06 17:13:10;;;;;;;123.07;56.13;;;5.10;99.90;;;;;;4938768;29;20979;-74
2021/11/06 17:15:37;;;;;;;134.23;53.57;;;5.00;99.90;;;;;;4938721;29;20456;-74
2021/11/06 17:18:04;;;;;;;158.27;52.40;;;5.00;99.90;;;;;;4938834;29;20492;-74
2021/11/06 17:20:33;;;;;;;125.47;48.83;;;4.90;99.90;;;;;;4938978;29;20445;-74
2021/11/06 17:22:59;;;;;;;201.03;50.27;;;4.90;99.90;;;;;;4940023;29;20454;-70
2021/11/06 17:25:26;;;;;;;232.77;51.20;;;5.00;99.90;;;;;;4939718;29;20448;-69
2021/11/06 17:27:53;;;;;;;448.40;57.97;;;5.00;99.90;;;;;;4939595;29;20484;-69
2021/11/06 17:30:21;;;;;;;299.47;53.60;;;5.00;99.90;;;;;;4939256;29;20466;-70
2021/11/06 17:32:49;;;;;;;188.30;53.10;;;4.90;99.90;;;;;;4939449;29;20463;-70
2021/11/06 17:35:17;;;;;;;560.83;63.80;;;4.90;99.90;;;;;;4938295;29;20476;-70
2021/11/06 17:37:46;;;;;;;240.03;53.27;;;5.00;99.90;;;;;;4938448;29;20460;-70
2021/11/06 17:40:13;;;;;;;398.90;52.63;;;5.00;99.90;;;;;;4938354;29;20445;-70
2021/11/06 17:42:42;;;;;;;280.27;53.87;;;5.00;99.90;;;;;;4938425;29;20480;-71